createdAt,value
2018-11-29T00:02:07.521Z,93.00
2018-11-29T00:04:35.050Z,93.10
2018-11-29T00:07:02.571Z,93.40
2018-11-29T00:09:34.726Z,93.30
2018-11-29T00:12:02.472Z,93.30
2018-11-29T00:14:30.077Z,93.40
2018-11-29T00:16:57.551Z,93.40
2018-11-29T00:19:25.152Z,93.30
2018-11-29T00:21:52.612Z,93.50
2018-11-29T00:24:20.176Z,93.40
2018-11-29T00:26:47.607Z,93.30
2018-11-29T00:29:15.168Z,93.40
2018-11-29T00:31:42.656Z,93.30
2018-11-29T00:34:10.196Z,93.40
2018-11-29T00:36:37.680Z,93.30
2018-11-29T00:39:06.268Z,93.40
2018-11-29T00:41:33.780Z,93.40
2018-11-29T00:44:01.385Z,93.50
2018-11-29T00:46:28.936Z,93.60
2018-11-29T00:48:56.397Z,93.70
2018-11-29T00:51:23.972Z,93.80
2018-11-29T00:53:51.396Z,93.90
2018-11-29T00:56:18.906Z,93.70
2018-11-29T00:58:46.362Z,93.50
2018-11-29T01:01:13.955Z,93.50
2018-11-29T01:03:41.427Z,93.60
2018-11-29T01:06:08.995Z,93.50
2018-11-29T01:08:36.471Z,93.60
2018-11-29T01:11:04.085Z,93.60
2018-11-29T01:13:31.640Z,93.60
2018-11-29T01:15:59.119Z,93.60
2018-11-29T01:18:26.664Z,93.50
2018-11-29T01:20:54.140Z,93.30
2018-11-29T01:23:21.683Z,93.20
2018-11-29T01:25:49.171Z,93.00
2018-11-29T01:28:16.719Z,92.70
2018-11-29T01:30:44.176Z,93.00
2018-11-29T01:33:11.708Z,92.80
2018-11-29T01:35:39.193Z,93.10
2018-11-29T01:38:06.773Z,93.00
2018-11-29T01:40:34.312Z,93.00
2018-11-29T01:43:01.952Z,93.20
2018-11-29T01:45:29.426Z,93.20
2018-11-29T01:47:57.017Z,93.40
2018-11-29T01:50:24.575Z,93.40
2018-11-29T01:52:52.103Z,93.60
2018-11-29T01:55:19.707Z,93.80
2018-11-29T01:57:47.226Z,93.80
2018-11-29T02:00:15.562Z,93.90
2018-11-29T02:02:43.846Z,93.70
2018-11-29T02:05:11.511Z,93.80
2018-11-29T02:07:38.996Z,93.80
2018-11-29T02:10:15.284Z,93.60
2018-11-29T02:12:42.930Z,93.60
2018-11-29T02:15:10.607Z,93.30
2018-11-29T02:17:38.084Z,93.30
2018-11-29T02:20:09.704Z,93.30
2018-11-29T02:22:37.198Z,93.40
2018-11-29T02:25:05.816Z,93.30
2018-11-29T02:27:33.688Z,93.20
2018-11-29T02:30:01.476Z,92.70
2018-11-29T02:32:28.940Z,92.70
2018-11-29T02:34:56.432Z,92.60
2018-11-29T02:37:24.025Z,93.00
2018-11-29T02:39:51.473Z,93.30
2018-11-29T02:42:19.052Z,93.10
2018-11-29T02:44:46.501Z,93.10
2018-11-29T02:47:14.031Z,93.10
2018-11-29T02:49:41.499Z,93.30
2018-11-29T02:52:09.056Z,93.40
2018-11-29T02:54:36.548Z,93.20
2018-11-29T02:57:04.200Z,93.40
2018-11-29T02:59:31.668Z,93.40
2018-11-29T03:01:59.188Z,93.50
2018-11-29T03:04:26.651Z,93.50
2018-11-29T03:06:54.163Z,93.50
2018-11-29T03:09:21.636Z,93.20
2018-11-29T03:11:49.277Z,93.20
2018-11-29T03:14:16.831Z,93.00
2018-11-29T03:16:44.310Z,92.60
2018-11-29T03:19:11.832Z,92.40
2018-11-29T03:21:39.288Z,92.40
2018-11-29T03:24:06.826Z,92.40
2018-11-29T03:26:34.340Z,92.30
2018-11-29T03:29:01.927Z,91.90
2018-11-29T03:31:29.477Z,92.10
2018-11-29T03:33:57.061Z,91.90
2018-11-29T03:36:24.527Z,92.20
2018-11-29T03:38:52.052Z,92.00
2018-11-29T03:41:19.496Z,92.00
2018-11-29T03:43:47.000Z,91.70
2018-11-29T03:46:14.445Z,91.90
2018-11-29T03:48:42.077Z,91.80
2018-11-29T03:51:09.727Z,91.90
2018-11-29T03:53:37.185Z,92.10
2018-11-29T03:56:05.345Z,92.40
2018-11-29T03:58:32.822Z,92.50
2018-11-29T04:01:00.317Z,92.70
2018-11-29T04:03:27.763Z,92.90
2018-11-29T04:05:55.254Z,92.90
2018-11-29T04:08:22.713Z,92.70
2018-11-29T04:10:50.392Z,92.60
2018-11-29T04:13:17.977Z,92.50
2018-11-29T04:15:45.520Z,92.40
2018-11-29T04:18:12.957Z,92.30
2018-11-29T04:20:40.479Z,92.00
2018-11-29T04:23:07.915Z,91.90
2018-11-29T04:25:35.440Z,91.90
2018-11-29T04:28:02.916Z,91.70
2018-11-29T04:30:30.380Z,91.50
2018-11-29T04:32:57.902Z,91.70
2018-11-29T04:35:25.352Z,91.60
2018-11-29T04:37:52.878Z,91.60
2018-11-29T04:40:20.397Z,91.50
2018-11-29T04:42:47.929Z,91.30
2018-11-29T04:45:16.457Z,91.50
2018-11-29T04:47:44.160Z,91.40
2018-11-29T04:50:11.689Z,91.20
2018-11-29T04:52:39.260Z,91.20
2018-11-29T04:55:07.882Z,91.10
2018-11-29T04:57:35.393Z,91.20
2018-11-29T05:00:03.355Z,91.30
2018-11-29T05:02:30.879Z,91.20
2018-11-29T05:04:58.332Z,91.20
2018-11-29T05:07:25.835Z,91.30
2018-11-29T05:09:53.323Z,91.40
2018-11-29T05:12:20.815Z,91.10
2018-11-29T05:14:48.404Z,91.40
2018-11-29T05:17:15.852Z,91.60
2018-11-29T05:19:43.362Z,91.60
2018-11-29T05:22:10.861Z,91.50
2018-11-29T05:24:38.408Z,91.30
2018-11-29T05:27:06.132Z,91.70
2018-11-29T05:29:33.676Z,91.30
2018-11-29T05:32:01.344Z,91.30
2018-11-29T05:34:28.868Z,91.20
2018-11-29T05:36:56.388Z,91.20
2018-11-29T05:39:23.961Z,91.10
2018-11-29T05:41:51.425Z,91.00
2018-11-29T05:44:18.883Z,90.90
2018-11-29T05:46:46.431Z,91.00
2018-11-29T05:49:13.977Z,90.80
2018-11-29T05:51:41.499Z,90.70
2018-11-29T05:54:08.945Z,90.80
2018-11-29T05:56:36.468Z,90.80
2018-11-29T05:59:03.967Z,90.80
2018-11-29T06:01:36.203Z,90.80
2018-11-29T06:04:03.697Z,90.80
2018-11-29T06:06:31.228Z,90.70
2018-11-29T06:08:58.756Z,90.80
2018-11-29T06:11:26.311Z,90.60
2018-11-29T06:13:53.787Z,90.60
2018-11-29T06:16:22.237Z,90.60
2018-11-29T06:18:49.708Z,90.80
2018-11-29T06:21:17.214Z,91.10
2018-11-29T06:23:44.725Z,91.10
2018-11-29T06:26:12.300Z,91.20
2018-11-29T06:28:39.767Z,91.30
2018-11-29T06:31:07.382Z,91.30
2018-11-29T06:33:34.894Z,91.20
2018-11-29T06:36:03.654Z,91.10
2018-11-29T06:38:31.199Z,91.10
2018-11-29T06:40:59.692Z,91.10
2018-11-29T06:43:27.203Z,91.00
2018-11-29T06:45:54.821Z,91.10
2018-11-29T06:48:22.433Z,91.00
2018-11-29T06:50:49.904Z,91.00
2018-11-29T06:53:23.195Z,90.90
2018-11-29T06:55:50.764Z,90.90
2018-11-29T06:58:18.343Z,90.90
2018-11-29T07:00:45.868Z,90.80
2018-11-29T07:03:13.639Z,90.80
2018-11-29T07:05:42.127Z,90.70
2018-11-29T07:08:09.584Z,90.90
2018-11-29T07:10:37.110Z,90.90
2018-11-29T07:13:06.135Z,91.10
2018-11-29T07:15:33.658Z,91.00
2018-11-29T07:18:01.418Z,90.90
2018-11-29T07:20:29.012Z,91.20
2018-11-29T07:22:56.515Z,91.50
2018-11-29T07:25:24.152Z,91.40
2018-11-29T07:28:08.607Z,91.40
2018-11-29T07:30:37.668Z,91.30
2018-11-29T07:33:05.283Z,91.40
2018-11-29T07:35:32.731Z,91.10
2018-11-29T07:38:00.256Z,91.50
2018-11-29T07:40:27.858Z,91.50
2018-11-29T07:42:55.368Z,91.70
2018-11-29T07:45:22.984Z,92.00
2018-11-29T07:47:50.476Z,92.40
2018-11-29T07:50:19.334Z,92.70
2018-11-29T07:52:46.984Z,92.90
2018-11-29T07:55:15.479Z,93.10
2018-11-29T07:57:43.258Z,93.60
2018-11-29T08:00:11.856Z,94.10
2018-11-29T08:02:39.426Z,94.50
2018-11-29T08:05:08.370Z,94.80
2018-11-29T08:07:35.928Z,95.20
2018-11-29T08:10:04.207Z,95.10
2018-11-29T08:12:31.782Z,94.90
2018-11-29T08:14:59.337Z,94.70
2018-11-29T08:17:26.884Z,94.70
2018-11-29T08:19:54.414Z,94.70
2018-11-29T08:22:21.956Z,94.40
2018-11-29T08:24:49.489Z,94.30
2018-11-29T08:27:17.105Z,94.50
2018-11-29T08:29:44.574Z,94.40
2018-11-29T08:32:12.119Z,94.40
2018-11-29T08:34:39.600Z,94.40
2018-11-29T08:37:07.172Z,94.40
2018-11-29T08:39:34.640Z,94.20
2018-11-29T08:42:02.208Z,94.00
2018-11-29T08:44:29.767Z,93.40
2018-11-29T08:46:57.252Z,93.30
2018-11-29T08:49:24.888Z,93.40
2018-11-29T08:51:52.367Z,93.20
2018-11-29T08:54:19.908Z,93.60
2018-11-29T08:56:47.356Z,93.60
2018-11-29T08:59:14.892Z,93.30
2018-11-29T09:01:42.449Z,93.10
2018-11-29T09:04:10.034Z,93.00
2018-11-29T09:06:37.496Z,93.00
2018-11-29T09:09:07.360Z,93.00
2018-11-29T09:11:34.920Z,93.00
2018-11-29T09:14:02.509Z,92.60
2018-11-29T09:16:30.099Z,92.40
2018-11-29T09:18:57.606Z,92.10
2018-11-29T09:21:25.145Z,92.00
2018-11-29T09:23:52.701Z,91.90
2018-11-29T09:26:20.282Z,92.10
2018-11-29T09:28:47.759Z,91.20
2018-11-29T09:31:15.306Z,91.10
2018-11-29T09:33:42.764Z,90.80
2018-11-29T09:36:10.354Z,91.10
2018-11-29T09:38:37.804Z,90.50
2018-11-29T09:41:05.525Z,90.40
2018-11-29T09:43:33.020Z,90.00
2018-11-29T09:46:00.781Z,88.80
2018-11-29T09:48:28.486Z,89.10
2018-11-29T09:50:55.975Z,88.00
2018-11-29T09:53:23.542Z,87.80
2018-11-29T09:55:51.151Z,88.10
2018-11-29T09:58:18.686Z,87.90
2018-11-29T10:00:46.138Z,88.50
2018-11-29T10:03:14.850Z,88.70
2018-11-29T10:05:43.644Z,88.60
2018-11-29T10:08:12.745Z,88.40
2018-11-29T10:10:40.223Z,88.00
2018-11-29T10:13:07.792Z,87.50
2018-11-29T10:15:35.465Z,87.90
2018-11-29T10:18:02.953Z,87.60
2018-11-29T10:20:30.547Z,87.80
2018-11-29T10:22:58.089Z,87.40
2018-11-29T10:25:25.649Z,87.20
2018-11-29T10:27:55.820Z,86.60
2018-11-29T10:30:27.604Z,86.40
2018-11-29T10:32:55.084Z,87.10
2018-11-29T10:35:22.652Z,85.30
2018-11-29T10:37:50.124Z,85.40
2018-11-29T10:40:17.660Z,85.00
2018-11-29T10:42:45.139Z,84.70
2018-11-29T10:45:16.821Z,83.70
2018-11-29T10:47:52.508Z,83.00
2018-11-29T10:50:18.977Z,82.60
2018-11-29T10:52:46.495Z,83.60
2018-11-29T10:55:16.746Z,84.80
2018-11-29T10:57:44.293Z,83.40
2018-11-29T11:00:28.232Z,82.70
2018-11-29T11:03:02.737Z,82.00
2018-11-29T11:05:30.887Z,81.20
2018-11-29T11:07:58.404Z,81.60
2018-11-29T11:10:25.901Z,80.80
2018-11-29T11:12:53.542Z,80.30
2018-11-29T11:15:21.104Z,80.10
2018-11-29T11:17:49.022Z,80.10
2018-11-29T11:20:17.632Z,81.00
2018-11-29T11:22:45.344Z,79.70
2018-11-29T11:25:12.901Z,79.80
2018-11-29T11:27:40.481Z,80.00
2018-11-29T11:30:13.167Z,79.60
2018-11-29T11:32:40.983Z,79.90
2018-11-29T11:35:08.695Z,78.90
2018-11-29T11:37:40.019Z,76.40
2018-11-29T11:40:14.461Z,77.20
2018-11-29T11:42:42.209Z,75.60
2018-11-29T11:45:15.138Z,76.30
2018-11-29T11:47:42.686Z,76.60
2018-11-29T11:50:12.809Z,75.40
2018-11-29T11:52:40.320Z,73.90
2018-11-29T11:55:08.489Z,75.30
2018-11-29T11:57:35.952Z,75.40
2018-11-29T12:00:05.229Z,73.40
2018-11-29T12:02:32.750Z,71.30
2018-11-29T12:05:00.269Z,72.00
2018-11-29T12:07:27.751Z,72.20
2018-11-29T12:09:55.284Z,73.90
2018-11-29T12:12:23.549Z,74.30
2018-11-29T12:14:51.136Z,73.60
2018-11-29T12:17:18.641Z,73.00
2018-11-29T12:19:46.680Z,72.80
2018-11-29T12:22:14.159Z,73.00
2018-11-29T12:24:41.769Z,73.10
2018-11-29T12:27:09.417Z,72.60
2018-11-29T12:29:36.970Z,73.00
2018-11-29T12:32:04.648Z,72.40
2018-11-29T12:34:32.145Z,71.70
2018-11-29T12:36:59.727Z,72.40
2018-11-29T12:39:27.200Z,72.00
2018-11-29T12:41:54.798Z,71.50
2018-11-29T12:44:26.620Z,71.50
2018-11-29T12:46:55.864Z,71.50
2018-11-29T12:49:23.389Z,70.50
2018-11-29T12:51:52.267Z,70.40
2018-11-29T12:54:19.816Z,70.80
2018-11-29T12:56:47.451Z,70.80
2018-11-29T12:59:15.708Z,69.90
2018-11-29T13:01:43.253Z,69.30
2018-11-29T13:04:10.802Z,69.70
2018-11-29T13:06:38.344Z,70.10
2018-11-29T13:09:09.221Z,70.30
2018-11-29T13:11:42.595Z,70.00
2018-11-29T13:14:11.523Z,70.60
2018-11-29T13:16:41.318Z,69.30
2018-11-29T13:19:11.143Z,69.80
2018-11-29T13:21:40.401Z,69.80
2018-11-29T13:24:12.325Z,70.50
2018-11-29T13:26:40.053Z,69.80
2018-11-29T13:29:07.674Z,70.90
2018-11-29T13:31:35.193Z,71.40
2018-11-29T13:34:02.788Z,70.20
2018-11-29T13:36:30.316Z,70.00
2018-11-29T13:38:57.941Z,70.40
2018-11-29T13:41:25.425Z,70.50
2018-11-29T13:43:53.092Z,70.10
2018-11-29T13:46:20.615Z,71.30
2018-11-29T13:48:48.209Z,71.30
2018-11-29T13:51:15.743Z,71.40
2018-11-29T13:53:43.797Z,70.90
2018-11-29T13:56:11.401Z,71.60
2018-11-29T13:58:38.944Z,72.10
2018-11-29T14:01:06.516Z,72.30
2018-11-29T14:03:34.181Z,72.10
2018-11-29T14:06:05.860Z,72.10
2018-11-29T14:08:36.689Z,72.00
2018-11-29T14:11:19.368Z,71.40
2018-11-29T14:13:57.573Z,71.90
2018-11-29T14:16:25.460Z,71.40
2018-11-29T14:18:53.038Z,71.50
2018-11-29T14:21:20.595Z,71.60
2018-11-29T14:23:48.076Z,71.10
2018-11-29T14:26:15.798Z,71.40
2018-11-29T14:28:43.518Z,71.20
2018-11-29T14:31:15.029Z,71.50
2018-11-29T14:36:44.981Z,71.10
2018-11-29T14:39:12.589Z,71.90
2018-11-29T14:41:40.476Z,71.40
2018-11-29T14:44:08.279Z,72.40
2018-11-29T14:46:36.056Z,72.40
2018-11-29T14:49:07.189Z,71.60
2018-11-29T14:51:34.915Z,72.20
2018-11-29T14:54:02.553Z,73.00
2018-11-29T14:56:30.127Z,72.40
2018-11-29T14:58:57.708Z,72.80
2018-11-29T15:01:25.252Z,72.70
2018-11-29T15:03:52.893Z,73.10
2018-11-29T15:06:25.577Z,72.90
2018-11-29T15:08:53.285Z,73.60
2018-11-29T15:11:20.868Z,72.60
2018-11-29T15:13:48.403Z,72.70
2018-11-29T15:16:15.916Z,73.50
2018-11-29T15:18:44.851Z,71.90
2018-11-29T15:21:12.352Z,72.30
2018-11-29T15:23:39.928Z,73.10
2018-11-29T15:26:07.418Z,73.00
2018-11-29T15:28:34.953Z,73.60
2018-11-29T15:31:02.590Z,73.40
2018-11-29T15:33:30.066Z,73.70
2018-11-29T15:35:57.690Z,74.50
2018-11-29T15:38:25.247Z,74.60
2018-11-29T15:40:52.900Z,74.60
2018-11-29T15:43:20.497Z,74.60
2018-11-29T15:45:49.269Z,74.60
2018-11-29T15:48:16.845Z,74.00
2018-11-29T15:50:44.457Z,73.20
2018-11-29T15:53:11.996Z,72.90
2018-11-29T15:55:39.653Z,74.30
2018-11-29T15:58:07.219Z,72.60
2018-11-29T16:00:34.818Z,72.70
2018-11-29T16:03:04.926Z,73.10
2018-11-29T16:05:33.402Z,72.10
2018-11-29T16:08:01.808Z,72.30
2018-11-29T16:10:29.392Z,72.10
2018-11-29T16:12:57.921Z,71.50
2018-11-29T16:15:26.952Z,71.70
2018-11-29T16:17:54.572Z,72.80
2018-11-29T16:20:27.256Z,72.00
2018-11-29T16:22:54.948Z,70.70
2018-11-29T16:25:23.076Z,71.00
2018-11-29T16:27:51.777Z,71.60
2018-11-29T16:30:54.910Z,71.50
2018-11-29T16:33:28.063Z,70.60
2018-11-29T16:35:57.690Z,70.90
2018-11-29T16:38:26.807Z,70.00
2018-11-29T16:40:55.369Z,70.30
2018-11-29T16:43:23.471Z,70.70
2018-11-29T16:45:51.731Z,70.60
2018-11-29T16:48:19.233Z,69.60
2018-11-29T16:50:48.275Z,70.20
2018-11-29T16:53:16.372Z,69.90
2018-11-29T16:55:44.352Z,70.40
2018-11-29T16:58:14.239Z,70.80
2018-11-29T17:00:42.019Z,70.90
2018-11-29T17:03:11.786Z,70.20
2018-11-29T17:05:39.640Z,70.80
2018-11-29T17:08:08.119Z,70.70
2018-11-29T17:10:37.081Z,70.50
2018-11-29T17:13:08.985Z,70.50
2018-11-29T17:15:37.194Z,71.40
2018-11-29T17:18:05.792Z,71.30
2018-11-29T17:20:34.663Z,71.60
2018-11-29T17:23:02.433Z,71.60
2018-11-29T17:26:45.781Z,72.00
2018-11-29T17:29:14.422Z,71.40
2018-11-29T17:31:44.170Z,72.30
2018-11-29T17:34:13.406Z,72.50
2018-11-29T17:40:38.292Z,75.20
2018-11-29T17:43:06.524Z,74.80
2018-11-29T17:45:34.127Z,75.10
2018-11-29T17:48:05.180Z,75.80
2018-11-29T17:50:36.241Z,76.90
2018-11-29T17:53:04.328Z,77.00
2018-11-29T17:55:31.836Z,77.40
2018-11-29T17:57:59.338Z,77.60
2018-11-29T18:00:28.459Z,78.20
2018-11-29T18:02:56.009Z,78.60
2018-11-29T18:05:23.669Z,78.60
2018-11-29T18:07:51.292Z,78.60
2018-11-29T18:10:21.066Z,78.50
2018-11-29T18:12:51.155Z,78.40
2018-11-29T18:15:21.272Z,78.10
2018-11-29T18:17:48.823Z,78.00
2018-11-29T18:20:16.421Z,77.30
2018-11-29T18:22:43.924Z,77.70
2018-11-29T18:25:13.609Z,78.50
2018-11-29T18:27:43.064Z,78.10
2018-11-29T18:30:12.879Z,78.60
2018-11-29T18:32:40.634Z,79.50
2018-11-29T18:35:09.274Z,79.00
2018-11-29T18:37:36.941Z,79.30
2018-11-29T18:40:10.127Z,79.50
2018-11-29T18:42:37.725Z,79.90
2018-11-29T18:45:12.347Z,80.40
2018-11-29T18:47:50.517Z,80.60
2018-11-29T18:50:19.251Z,80.80
2018-11-29T18:52:47.035Z,81.40
2018-11-29T18:55:14.597Z,81.00
2018-11-29T18:57:42.211Z,81.30
2018-11-29T19:00:14.383Z,81.40
2018-11-29T19:02:42.147Z,81.40
2018-11-29T19:05:09.782Z,81.60
2018-11-29T19:07:37.369Z,82.10
2018-11-29T19:10:08.734Z,82.30
2018-11-29T19:12:36.255Z,82.70
2018-11-29T19:15:05.194Z,83.00
2018-11-29T19:17:32.724Z,83.20
2018-11-29T19:20:00.331Z,82.90
2018-11-29T19:22:27.871Z,83.10
2018-11-29T19:24:55.480Z,83.10
2018-11-29T19:27:22.982Z,83.40
2018-11-29T19:29:50.654Z,84.30
2018-11-29T19:32:18.367Z,84.10
2018-11-29T19:34:46.033Z,84.00
2018-11-29T19:37:13.591Z,84.50
2018-11-29T19:39:41.197Z,85.10
2018-11-29T19:42:08.882Z,84.80
2018-11-29T19:44:36.530Z,85.30
2018-11-29T19:47:04.417Z,85.30
2018-11-29T19:49:31.909Z,85.70
2018-11-29T19:51:59.516Z,86.30
2018-11-29T19:54:27.084Z,86.60
2018-11-29T19:56:54.751Z,86.10
2018-11-29T19:59:22.284Z,85.80
2018-11-29T20:01:49.908Z,85.90
2018-11-29T20:04:17.448Z,86.30
2018-11-29T20:06:45.086Z,86.20
2018-11-29T20:09:12.639Z,86.20
2018-11-29T20:11:40.262Z,86.30
2018-11-29T20:14:07.788Z,86.00
2018-11-29T20:16:35.279Z,85.30
2018-11-29T20:19:02.951Z,84.70
2018-11-29T20:21:30.605Z,84.40
2018-11-29T20:23:58.209Z,83.50
2018-11-29T20:26:25.944Z,83.30
2018-11-29T20:28:54.355Z,83.00
2018-11-29T20:31:21.880Z,83.60
2018-11-29T20:33:49.471Z,83.10
2018-11-29T20:36:17.008Z,82.90
2018-11-29T20:38:44.622Z,82.90
2018-11-29T20:41:12.109Z,83.20
2018-11-29T20:43:39.670Z,83.40
2018-11-29T20:46:07.320Z,83.70
2018-11-29T20:48:34.909Z,83.50
2018-11-29T20:51:02.590Z,83.00
2018-11-29T20:53:32.859Z,83.30
2018-11-29T20:56:00.782Z,83.10
2018-11-29T20:58:28.401Z,83.10
2018-11-29T21:00:55.909Z,83.10
2018-11-29T21:03:23.606Z,82.80
2018-11-29T21:05:51.172Z,82.50
2018-11-29T21:08:18.791Z,82.50
2018-11-29T21:10:46.401Z,82.30
2018-11-29T21:13:14.084Z,82.20
2018-11-29T21:15:42.290Z,82.90
2018-11-29T21:18:12.956Z,82.20
2018-11-29T21:20:41.382Z,81.90
2018-11-29T21:23:10.600Z,81.70
2018-11-29T21:25:38.191Z,82.10
2018-11-29T21:28:06.372Z,82.10
2018-11-29T21:30:34.142Z,82.00
2018-11-29T21:33:01.778Z,81.90
2018-11-29T21:35:29.383Z,82.50
2018-11-29T21:37:56.922Z,82.70
2018-11-29T21:40:28.902Z,82.70
2018-11-29T21:42:56.455Z,82.60
2018-11-29T21:45:24.051Z,82.80
2018-11-29T21:47:51.743Z,82.60
2018-11-29T21:50:19.301Z,82.50
2018-11-29T21:52:46.879Z,82.90
2018-11-29T21:55:14.497Z,83.20
2018-11-29T21:57:42.069Z,83.50
2018-11-29T22:00:14.944Z,83.90
2018-11-29T22:02:45.984Z,83.80
2018-11-29T22:05:13.548Z,84.40
2018-11-29T22:07:41.135Z,84.20
2018-11-29T22:10:08.741Z,84.00
2018-11-29T22:12:36.422Z,84.20
2018-11-29T22:15:05.548Z,84.50
2018-11-29T22:17:33.140Z,85.00
2018-11-29T22:20:00.784Z,85.30
2018-11-29T22:22:28.570Z,85.70
2018-11-29T22:24:55.948Z,86.10
2018-11-29T22:27:23.405Z,86.60
2018-11-29T22:29:50.909Z,87.30
2018-11-29T22:32:18.480Z,88.50
2018-11-29T22:34:46.090Z,89.20
2018-11-29T22:37:13.667Z,88.70
2018-11-29T22:39:41.183Z,89.30
2018-11-29T22:42:08.676Z,90.00
2018-11-29T22:44:36.247Z,90.40
2018-11-29T22:47:03.790Z,90.50
2018-11-29T22:49:31.370Z,90.60
2018-11-29T22:51:58.872Z,90.60
2018-11-29T22:54:26.411Z,90.90
2018-11-29T22:56:53.888Z,91.10
2018-11-29T22:59:21.419Z,91.50
2018-11-29T23:01:48.925Z,91.50
2018-11-29T23:04:16.549Z,91.50
2018-11-29T23:06:44.033Z,91.60
2018-11-29T23:09:11.550Z,91.50
2018-11-29T23:11:39.072Z,91.20
2018-11-29T23:14:06.596Z,91.30
2018-11-29T23:16:34.148Z,91.10
2018-11-29T23:19:01.972Z,91.10
2018-11-29T23:21:29.477Z,91.30
2018-11-29T23:23:56.971Z,91.10
2018-11-29T23:26:24.463Z,90.80
2018-11-29T23:28:51.996Z,90.70
2018-11-29T23:31:19.527Z,90.40
2018-11-29T23:33:47.030Z,90.30
2018-11-29T23:36:14.514Z,90.40
2018-11-29T23:38:42.000Z,90.30
2018-11-29T23:41:09.930Z,90.10
2018-11-29T23:43:37.207Z,90.00
2018-11-29T23:46:04.789Z,89.80
2018-11-29T23:48:32.321Z,89.20
2018-11-29T23:50:59.817Z,89.10
2018-11-29T23:53:27.346Z,89.20
2018-11-29T23:55:54.776Z,89.20
2018-11-29T23:58:22.254Z,89.20
